Kewanee, Missouri
Current Conditions -  °F | °C
As of 7:15 AM on Tuesday 21 Oct 2014 (Local Time) from KCIR Reporting Station
Moderate Fog Moderate Fog  
Wind Chill: 46°   Ceiling: 500
Heat Index: 46°   Visibility: 0.5mi
Dew Point: 44°   Wind: 0mph
Humidity: 93%   Direction: NA
Pressure: 30.06"   Gusts: NA
Location:  36.67°N, 89.57°W
Report Text: KCIR 211215Z AUTO 00000KT 1/2SM FG VV005 08/07 A3006 RMK AO2 T00770066
Loading
Personal Weather Stations






























Interactive Weather Map
Tropical Storm Tracking
New forecast layout! Learn more

10-Day Weather Forecast

Advertisements
Track Severe Weather on mobile